Time;durP1;ratioP1;P1;durP2;ratioP2;P2;SDS_P1;SDS_P2;PMS_P1;PMS_P2;Temp;Humidity;BMP_temperature;BMP_pressure;BME280_temperature;BME280_humidity;BME280_pressure;Samples;Min_cycle;Max_cycle;Signal;HPM_P1;HPM_P2
2023/01/22 00:01:08;;;;;;;50.67;25.42;;;0.60;99.90;;;;;;5060321;28;20045;-61
2023/01/22 00:03:37;;;;;;;45.95;24.60;;;0.50;99.90;;;;;;5057721;28;20156;-61
2023/01/22 00:06:03;;;;;;;46.22;25.15;;;0.40;99.90;;;;;;5055543;28;20036;-61
2023/01/22 00:08:28;;;;;;;47.00;24.10;;;0.40;99.90;;;;;;5055647;28;20037;-61
2023/01/22 00:10:55;;;;;;;43.90;24.33;;;0.40;99.90;;;;;;5054772;28;20040;-61
2023/01/22 00:13:22;;;;;;;43.80;24.17;;;0.40;99.90;;;;;;5053163;28;20105;-60
2023/01/22 00:15:48;;;;;;;45.83;25.00;;;0.50;99.90;;;;;;5056902;28;20036;-60
2023/01/22 00:18:14;;;;;;;46.05;25.08;;;0.70;99.90;;;;;;5054107;28;20047;-59
2023/01/22 00:20:40;;;;;;;43.10;23.63;;;0.70;99.90;;;;;;5057068;28;20044;-58
2023/01/22 00:23:05;;;;;;;45.33;25.15;;;0.70;99.90;;;;;;5055723;28;20822;-60
2023/01/22 00:25:31;;;;;;;40.22;23.65;;;0.70;99.90;;;;;;5057277;28;20119;-61
2023/01/22 00:27:57;;;;;;;43.65;24.30;;;0.80;99.90;;;;;;5056743;28;20052;-61
2023/01/22 00:30:22;;;;;;;41.88;22.45;;;0.70;99.90;;;;;;5054090;28;20036;-60
2023/01/22 00:32:48;;;;;;;44.03;24.73;;;0.80;99.90;;;;;;5051754;28;20058;-58
2023/01/22 00:35:14;;;;;;;48.65;23.75;;;0.70;99.90;;;;;;5056626;28;20039;-61
2023/01/22 00:37:39;;;;;;;42.63;23.77;;;0.70;99.90;;;;;;5055852;28;20036;-60
2023/01/22 00:40:05;;;;;;;45.42;23.73;;;0.70;99.90;;;;;;5055212;28;20093;-60
2023/01/22 00:42:30;;;;;;;45.70;23.98;;;0.70;99.90;;;;;;5055101;28;20102;-60
2023/01/22 00:44:58;;;;;;;38.78;22.48;;;0.60;99.90;;;;;;5054613;28;20036;-61
2023/01/22 00:47:24;;;;;;;44.38;24.88;;;0.70;99.90;;;;;;5056257;28;20072;-58
2023/01/22 00:49:50;;;;;;;41.15;21.25;;;0.70;99.90;;;;;;5053681;28;20563;-56
2023/01/22 00:52:15;;;;;;;39.15;22.85;;;0.60;99.90;;;;;;5053495;28;20040;-59
2023/01/22 00:54:41;;;;;;;39.83;22.88;;;0.70;99.90;;;;;;5057721;28;20032;-59
2023/01/22 00:57:06;;;;;;;42.28;22.13;;;0.70;99.90;;;;;;5051080;28;20091;-61
2023/01/22 00:59:32;;;;;;;40.58;24.30;;;0.70;99.90;;;;;;5053997;28;20033;-59
2023/01/22 01:01:57;;;;;;;41.47;23.98;;;0.70;99.90;;;;;;5058192;28;20055;-61
2023/01/22 01:04:23;;;;;;;38.50;21.80;;;0.70;99.90;;;;;;5057193;28;20155;-61
2023/01/22 01:06:49;;;;;;;40.47;23.20;;;0.70;99.90;;;;;;5052895;28;20119;-60
2023/01/22 01:09:14;;;;;;;42.50;23.88;;;0.80;99.90;;;;;;5050612;28;20037;-60
2023/01/22 01:11:40;;;;;;;45.67;25.85;;;0.80;99.90;;;;;;5054299;28;20044;-60
2023/01/22 01:14:05;;;;;;;40.42;22.65;;;0.80;99.90;;;;;;5054327;28;20033;-61
2023/01/22 01:16:31;;;;;;;39.55;22.08;;;0.90;99.90;;;;;;5055616;28;20048;-61
2023/01/22 01:19:02;;;;;;;38.42;21.58;;;0.90;99.90;;;;;;5049940;28;20037;-61
2023/01/22 01:21:29;;;;;;;39.90;22.52;;;0.80;99.90;;;;;;5055537;28;20546;-61
2023/01/22 01:23:55;;;;;;;41.78;22.85;;;0.80;99.90;;;;;;5052595;28;20029;-59
2023/01/22 01:26:21;;;;;;;38.78;22.73;;;0.70;99.90;;;;;;5049112;28;20119;-60
2023/01/22 01:28:47;;;;;;;35.20;20.60;;;0.70;99.90;;;;;;5053133;28;20033;-61
2023/01/22 01:31:15;;;;;;;42.35;22.00;;;0.80;99.90;;;;;;5053901;28;20044;-61
2023/01/22 01:33:41;;;;;;;39.60;23.13;;;0.80;99.90;;;;;;5057173;28;20095;-61
2023/01/22 01:36:19;;;;;;;43.58;22.85;;;0.80;99.90;;;;;;5048972;28;20546;-61
2023/01/22 01:38:44;;;;;;;38.60;21.50;;;0.90;99.90;;;;;;5052923;28;20041;-61
2023/01/22 01:41:14;;;;;;;40.30;22.35;;;0.90;99.90;;;;;;5050457;28;20033;-60
2023/01/22 01:43:39;;;;;;;41.63;22.20;;;0.80;99.90;;;;;;5054491;28;20515;-58
2023/01/22 01:46:28;;;;;;;37.17;21.48;;;0.70;99.90;;;;;;5057984;28;20045;-59
2023/01/22 01:48:54;;;;;;;38.85;21.40;;;0.70;99.90;;;;;;5051201;28;20680;-61
2023/01/22 01:51:30;;;;;;;43.40;24.45;;;0.90;99.90;;;;;;5051799;28;20037;-60
2023/01/22 01:53:58;;;;;;;37.92;22.50;;;1.00;99.90;;;;;;5050123;28;20594;-58
2023/01/22 01:56:28;;;;;;;37.90;22.20;;;1.00;99.90;;;;;;5057310;28;20059;-61
2023/01/22 01:59:02;;;;;;;39.90;21.35;;;1.00;99.90;;;;;;5057897;28;20575;-60
2023/01/22 02:01:29;;;;;;;39.90;22.88;;;1.00;99.90;;;;;;5061558;28;20036;-61
2023/01/22 02:03:56;;;;;;;43.08;23.70;;;1.10;99.90;;;;;;5057402;28;20438;-60
2023/01/22 02:06:22;;;;;;;36.63;22.63;;;1.10;99.90;;;;;;5056316;28;20072;-59
2023/01/22 02:08:49;;;;;;;37.20;22.20;;;0.90;99.90;;;;;;5064490;28;20111;-56
2023/01/22 02:11:16;;;;;;;39.80;22.95;;;0.80;99.90;;;;;;5055136;28;20373;-58
2023/01/22 02:13:54;;;;;;;38.05;23.35;;;0.80;99.90;;;;;;5058809;28;20029;-60
2023/01/22 02:16:19;;;;;;;40.17;22.77;;;0.80;99.90;;;;;;5058138;28;20047;-60
2023/01/22 02:18:45;;;;;;;39.58;23.50;;;0.90;99.90;;;;;;5058574;28;20037;-58
2023/01/22 02:21:38;;;;;;;39.08;23.30;;;0.90;99.90;;;;;;5055702;28;20488;-60
2023/01/22 02:24:08;;;;;;;40.88;22.63;;;1.10;99.90;;;;;;5053751;28;20032;-59
2023/01/22 02:26:35;;;;;;;40.47;23.33;;;0.90;99.90;;;;;;5056524;28;20058;-58
2023/01/22 02:29:01;;;;;;;43.85;23.35;;;0.80;99.90;;;;;;5058980;28;20570;-60
2023/01/22 02:31:26;;;;;;;40.45;23.05;;;0.70;99.90;;;;;;5057363;28;20174;-58
2023/01/22 02:33:52;;;;;;;37.85;22.35;;;0.80;99.90;;;;;;5056977;28;20029;-61
2023/01/22 02:36:18;;;;;;;38.15;22.55;;;0.80;99.90;;;;;;5055149;28;20090;-61
2023/01/22 02:38:44;;;;;;;39.13;20.77;;;0.80;99.90;;;;;;5060074;28;20043;-61
2023/01/22 02:41:10;;;;;;;40.33;23.30;;;0.70;99.90;;;;;;5054975;28;20537;-60
2023/01/22 02:43:35;;;;;;;44.33;23.48;;;0.60;99.90;;;;;;5054682;28;20117;-61
2023/01/22 02:46:01;;;;;;;37.50;21.80;;;0.60;99.90;;;;;;5059270;28;20037;-58
2023/01/22 02:48:26;;;;;;;42.45;23.55;;;0.60;99.90;;;;;;5058030;28;20051;-58
2023/01/22 02:50:52;;;;;;;40.20;23.52;;;0.70;99.90;;;;;;5057397;28;20036;-61
2023/01/22 02:53:18;;;;;;;42.33;23.92;;;0.70;99.90;;;;;;5057426;28;20041;-60
2023/01/22 02:55:45;;;;;;;41.13;24.08;;;0.80;99.90;;;;;;5057611;28;20041;-62
2023/01/22 02:58:10;;;;;;;40.63;23.10;;;0.80;99.90;;;;;;5053958;28;20041;-59
2023/01/22 03:00:36;;;;;;;39.90;23.73;;;0.70;99.90;;;;;;5057998;28;20052;-61
2023/01/22 03:03:06;;;;;;;37.90;22.45;;;0.80;99.90;;;;;;5055224;28;20025;-58
2023/01/22 03:05:35;;;;;;;40.47;22.95;;;0.80;99.90;;;;;;5058205;28;20437;-58
2023/01/22 03:08:01;;;;;;;41.90;23.27;;;0.70;99.90;;;;;;5056500;28;20033;-60
2023/01/22 03:10:26;;;;;;;39.35;23.90;;;0.70;99.90;;;;;;5063641;28;20299;-59
2023/01/22 03:21:16;;;;;;;37.92;21.38;;;0.90;99.90;;;;;;5057065;28;20054;-60
2023/01/22 03:23:47;;;;;;;37.92;21.55;;;0.90;99.90;;;;;;5055809;28;20037;-60
2023/01/22 03:26:13;;;;;;;37.38;22.52;;;0.80;99.90;;;;;;5053060;28;20090;-60
2023/01/22 03:28:39;;;;;;;32.90;18.38;;;0.80;99.90;;;;;;5058584;28;20435;-60
2023/01/22 03:31:05;;;;;;;37.70;20.73;;;0.70;99.90;;;;;;5053318;28;20036;-58
2023/01/22 03:33:31;;;;;;;29.70;18.33;;;0.80;99.90;;;;;;5057871;28;20040;-61
2023/01/22 03:36:05;;;;;;;33.33;19.02;;;0.80;99.90;;;;;;5056649;28;20559;-61
2023/01/22 03:38:31;;;;;;;31.35;18.77;;;0.70;99.90;;;;;;5055477;28;20036;-61
2023/01/22 03:41:10;;;;;;;30.83;19.98;;;0.70;99.90;;;;;;5058265;28;20422;-61
2023/01/22 03:43:35;;;;;;;32.95;19.70;;;0.80;99.90;;;;;;5055066;28;20032;-61
2023/01/22 03:46:06;;;;;;;31.35;20.23;;;0.90;99.90;;;;;;5055938;28;20032;-61
2023/01/22 03:48:32;;;;;;;31.65;20.33;;;0.80;99.90;;;;;;5052289;28;20040;-60
2023/01/22 03:51:07;;;;;;;32.35;20.55;;;0.80;99.90;;;;;;5055346;28;20037;-59
2023/01/22 03:53:33;;;;;;;36.00;19.77;;;0.90;99.90;;;;;;5059304;28;20069;-61
2023/01/22 03:56:01;;;;;;;37.67;21.88;;;0.80;99.90;;;;;;5057712;28;20044;-61
2023/01/22 03:58:28;;;;;;;34.78;22.00;;;1.00;99.90;;;;;;5057279;28;20037;-60
2023/01/22 04:00:56;;;;;;;34.65;21.60;;;1.00;99.90;;;;;;5055702;28;20036;-61
2023/01/22 04:03:24;;;;;;;35.05;20.85;;;1.00;99.90;;;;;;5051600;28;20483;-60
2023/01/22 04:05:49;;;;;;;34.53;20.45;;;0.80;99.90;;;;;;5056549;28;20032;-61
2023/01/22 04:08:15;;;;;;;30.92;18.98;;;0.90;99.90;;;;;;5057218;28;20158;-57
2023/01/22 04:10:42;;;;;;;34.42;20.42;;;0.80;99.90;;;;;;5056481;28;20025;-59
2023/01/22 04:13:07;;;;;;;30.48;18.30;;;0.90;99.90;;;;;;5053818;28;20090;-59
2023/01/22 04:15:33;;;;;;;33.38;20.70;;;0.80;99.90;;;;;;5059808;28;20426;-60
2023/01/22 04:17:58;;;;;;;33.03;20.33;;;0.70;99.90;;;;;;5057311;28;20384;-60
2023/01/22 04:20:24;;;;;;;32.92;21.63;;;0.70;99.90;;;;;;5052494;28;20067;-61
2023/01/22 04:22:50;;;;;;;31.58;20.52;;;0.80;99.90;;;;;;5055137;28;20423;-60
2023/01/22 04:25:16;;;;;;;35.95;21.92;;;0.70;99.90;;;;;;5057475;28;20064;-57
2023/01/22 04:27:43;;;;;;;35.88;21.80;;;0.80;99.90;;;;;;5053823;28;20697;-61
2023/01/22 04:30:10;;;;;;;31.83;19.85;;;0.90;99.90;;;;;;5053809;28;20028;-58
2023/01/22 04:32:35;;;;;;;31.63;19.77;;;0.80;99.90;;;;;;5053347;28;20032;-61
2023/01/22 04:35:02;;;;;;;33.83;19.58;;;0.70;99.90;;;;;;5052520;28;20033;-61
2023/01/22 04:37:28;;;;;;;29.98;19.95;;;0.60;99.90;;;;;;5052966;28;20048;-60
2023/01/22 04:39:54;;;;;;;31.17;19.00;;;0.60;99.90;;;;;;5056528;28;20032;-61
2023/01/22 04:42:19;;;;;;;31.00;19.15;;;0.70;99.90;;;;;;5053995;28;21164;-59
2023/01/22 04:44:45;;;;;;;34.38;20.95;;;0.60;99.90;;;;;;5054975;28;20048;-59
2023/01/22 04:47:10;;;;;;;31.10;20.02;;;0.60;99.90;;;;;;5054170;28;20037;-60
2023/01/22 04:49:36;;;;;;;30.40;18.90;;;0.60;99.90;;;;;;5051870;28;20036;-61
2023/01/22 04:52:02;;;;;;;31.63;19.83;;;0.60;99.90;;;;;;5054300;28;20090;-60
2023/01/22 04:54:27;;;;;;;33.65;20.13;;;0.70;99.90;;;;;;5052929;28;20044;-57
2023/01/22 04:56:53;;;;;;;34.22;20.65;;;0.80;99.90;;;;;;5055205;28;20979;-61
2023/01/22 04:59:18;;;;;;;29.33;19.15;;;1.00;99.90;;;;;;5054314;28;20048;-61
2023/01/22 05:01:44;;;;;;;31.35;18.80;;;0.80;99.90;;;;;;5054411;28;20048;-56
2023/01/22 05:04:10;;;;;;;32.00;18.35;;;0.80;99.90;;;;;;5054359;28;20044;-61
2023/01/22 05:06:35;;;;;;;29.17;19.17;;;0.80;99.90;;;;;;5057949;28;20085;-61
2023/01/22 05:09:01;;;;;;;29.48;17.83;;;0.80;99.90;;;;;;5053793;28;20179;-60
2023/01/22 05:11:26;;;;;;;27.65;18.02;;;0.60;99.90;;;;;;5052334;28;20040;-60
2023/01/22 05:13:53;;;;;;;29.38;17.58;;;0.70;99.90;;;;;;5058126;28;20032;-57
2023/01/22 05:16:18;;;;;;;29.52;19.20;;;0.60;99.90;;;;;;5058276;28;20041;-59
2023/01/22 05:18:44;;;;;;;29.17;19.08;;;0.70;99.90;;;;;;5055562;28;20170;-61
2023/01/22 05:21:10;;;;;;;29.30;19.65;;;0.80;99.90;;;;;;5052628;28;20040;-58
2023/01/22 05:23:35;;;;;;;28.65;18.58;;;0.80;99.90;;;;;;5055133;28;20039;-59
2023/01/22 05:26:01;;;;;;;30.73;18.50;;;0.90;99.90;;;;;;5052228;28;20116;-59
2023/01/22 05:28:26;;;;;;;30.13;18.58;;;0.80;99.90;;;;;;5054191;28;20049;-60
2023/01/22 05:30:52;;;;;;;29.70;17.25;;;0.90;99.90;;;;;;5046899;28;20052;-60
2023/01/22 05:33:17;;;;;;;30.17;19.15;;;0.90;99.90;;;;;;5053514;28;20039;-58
2023/01/22 05:35:43;;;;;;;28.05;18.17;;;1.10;99.90;;;;;;5054481;28;20478;-61
2023/01/22 05:38:09;;;;;;;30.50;19.35;;;0.90;99.90;;;;;;5053911;28;20036;-59
2023/01/22 05:40:34;;;;;;;29.60;17.77;;;0.90;99.90;;;;;;5049158;28;20047;-60
2023/01/22 05:43:02;;;;;;;27.38;18.30;;;0.90;99.90;;;;;;5051812;28;20133;-59
2023/01/22 05:45:28;;;;;;;25.75;17.08;;;0.90;99.90;;;;;;5054078;28;20483;-59
2023/01/22 05:47:54;;;;;;;27.30;17.30;;;0.90;99.90;;;;;;5053116;28;20233;-59
2023/01/22 05:50:20;;;;;;;29.33;17.27;;;0.80;99.90;;;;;;5051440;28;20039;-60
2023/01/22 05:52:53;;;;;;;25.83;15.57;;;0.80;99.90;;;;;;5051526;28;20036;-61
2023/01/22 05:55:18;;;;;;;24.40;13.88;;;0.80;99.90;;;;;;5056581;28;20060;-58
2023/01/22 05:57:45;;;;;;;26.42;16.67;;;0.80;99.90;;;;;;5056594;28;20420;-60
2023/01/22 06:00:11;;;;;;;26.58;16.80;;;0.70;99.90;;;;;;5056671;28;20182;-60
2023/01/22 06:02:37;;;;;;;26.40;17.60;;;0.70;99.90;;;;;;5055150;28;20115;-58
2023/01/22 06:05:06;;;;;;;28.35;17.92;;;0.80;99.90;;;;;;5052944;28;20035;-61
2023/01/22 06:07:31;;;;;;;29.20;17.65;;;0.90;99.90;;;;;;5056832;28;20033;-58
2023/01/22 06:09:57;;;;;;;28.48;17.85;;;1.00;99.90;;;;;;5054811;28;20029;-60
2023/01/22 06:12:22;;;;;;;27.88;18.88;;;1.20;99.90;;;;;;5052321;28;20040;-61
2023/01/22 06:14:49;;;;;;;27.00;17.83;;;1.20;99.90;;;;;;5050764;28;20056;-59
2023/01/22 06:17:15;;;;;;;28.65;17.70;;;1.00;99.90;;;;;;5050738;28;20084;-60
2023/01/22 06:19:44;;;;;;;24.27;15.27;;;1.00;99.90;;;;;;5056648;28;20071;-61
2023/01/22 06:22:10;;;;;;;27.83;17.15;;;1.00;99.90;;;;;;5047573;28;20062;-59
2023/01/22 06:24:35;;;;;;;25.63;16.40;;;0.90;99.90;;;;;;5056350;28;20029;-56
2023/01/22 06:27:02;;;;;;;26.35;16.80;;;0.90;99.90;;;;;;5053396;28;20058;-55
2023/01/22 06:29:30;;;;;;;26.05;16.13;;;0.90;99.90;;;;;;5047838;28;20033;-60
2023/01/22 06:31:56;;;;;;;26.88;16.90;;;0.80;99.90;;;;;;5053440;28;20124;-60
2023/01/22 06:34:22;;;;;;;24.67;15.63;;;0.80;99.90;;;;;;5052841;28;20449;-61
2023/01/22 06:36:50;;;;;;;23.55;14.60;;;0.80;99.90;;;;;;5053845;28;20057;-59
2023/01/22 06:39:16;;;;;;;24.52;16.58;;;0.80;99.90;;;;;;5052614;28;20036;-60
2023/01/22 06:41:42;;;;;;;24.80;15.80;;;0.90;99.90;;;;;;5053202;28;20037;-61
2023/01/22 06:44:07;;;;;;;26.50;16.30;;;0.80;99.90;;;;;;5055322;28;20036;-59
2023/01/22 06:46:35;;;;;;;24.98;16.17;;;0.80;99.90;;;;;;5055807;28;20033;-59
2023/01/22 06:49:01;;;;;;;23.52;15.95;;;0.80;99.90;;;;;;5053038;28;20710;-59
2023/01/22 06:51:28;;;;;;;23.58;14.88;;;0.90;99.90;;;;;;5056170;28;20056;-60
2023/01/22 06:53:54;;;;;;;26.63;17.42;;;0.80;99.90;;;;;;5059565;28;20037;-60
2023/01/22 06:56:20;;;;;;;28.73;16.23;;;0.80;99.90;;;;;;5055560;28;20041;-60
2023/01/22 06:58:46;;;;;;;24.30;15.63;;;0.70;99.90;;;;;;5058008;28;20450;-57
2023/01/22 07:01:11;;;;;;;25.52;15.48;;;0.70;99.90;;;;;;5057069;28;20086;-59
2023/01/22 07:03:39;;;;;;;25.90;16.08;;;0.70;99.90;;;;;;5055959;28;20044;-60
2023/01/22 07:06:05;;;;;;;23.55;15.77;;;0.90;99.90;;;;;;5054537;28;20119;-60
2023/01/22 07:08:32;;;;;;;25.00;15.82;;;0.90;99.90;;;;;;5058406;28;20123;-61
2023/01/22 07:10:58;;;;;;;22.17;15.00;;;0.90;99.90;;;;;;5055396;28;20025;-60
2023/01/22 07:13:24;;;;;;;25.27;15.77;;;0.70;99.90;;;;;;5055184;28;21175;-59
2023/01/22 07:15:50;;;;;;;21.83;14.75;;;0.80;99.90;;;;;;5056858;28;20047;-60
2023/01/22 07:18:18;;;;;;;22.98;13.98;;;0.80;99.90;;;;;;5053385;28;20396;-60
2023/01/22 07:20:44;;;;;;;21.83;14.63;;;1.00;99.90;;;;;;5058961;28;20056;-61
2023/01/22 07:23:10;;;;;;;25.67;15.40;;;0.80;99.90;;;;;;5062481;28;20045;-60
2023/01/22 07:25:35;;;;;;;23.83;15.38;;;0.80;99.90;;;;;;5055556;28;20063;-60
2023/01/22 07:28:05;;;;;;;23.90;15.00;;;0.60;99.90;;;;;;5057217;28;20040;-60
2023/01/22 07:30:31;;;;;;;22.73;14.88;;;0.90;99.90;;;;;;5055129;28;20040;-58
2023/01/22 07:32:59;;;;;;;22.80;15.27;;;0.80;99.90;;;;;;5057838;28;21086;-60
2023/01/22 07:35:25;;;;;;;23.35;15.02;;;0.80;99.90;;;;;;5052841;28;20538;-60
2023/01/22 07:37:55;;;;;;;23.98;15.05;;;0.80;99.90;;;;;;5056645;28;20053;-59
2023/01/22 07:40:25;;;;;;;23.13;14.13;;;0.70;99.90;;;;;;5056787;28;20121;-61
2023/01/22 07:42:51;;;;;;;25.10;16.10;;;0.80;99.90;;;;;;5059738;28;20033;-60
2023/01/22 07:45:20;;;;;;;22.92;15.07;;;0.70;99.90;;;;;;5053952;28;20033;-60
2023/01/22 07:47:55;;;;;;;23.23;16.25;;;0.80;99.90;;;;;;5057609;28;20044;-59
2023/01/22 07:50:22;;;;;;;25.02;16.42;;;0.90;99.90;;;;;;5051066;28;20504;-59
2023/01/22 07:52:48;;;;;;;23.10;14.52;;;0.80;99.90;;;;;;5054443;28;20032;-60
2023/01/22 07:55:14;;;;;;;23.20;14.60;;;0.80;99.90;;;;;;5059542;28;20052;-59
2023/01/22 07:57:40;;;;;;;23.00;15.05;;;0.80;99.90;;;;;;5052861;28;20044;-60
2023/01/22 08:00:09;;;;;;;23.33;16.13;;;0.80;99.90;;;;;;5055100;28;20036;-60
2023/01/22 08:02:35;;;;;;;25.00;14.48;;;0.80;99.90;;;;;;5057770;28;20058;-60
2023/01/22 08:05:01;;;;;;;21.20;14.57;;;0.80;99.90;;;;;;5051786;28;20617;-60
2023/01/22 08:07:26;;;;;;;24.05;14.82;;;0.90;99.90;;;;;;5057018;28;20044;-60
2023/01/22 08:09:52;;;;;;;21.63;14.20;;;0.90;99.90;;;;;;5057382;28;20036;-61
2023/01/22 08:12:17;;;;;;;23.38;14.73;;;1.00;99.90;;;;;;5052253;28;20025;-60
2023/01/22 08:14:43;;;;;;;25.05;15.68;;;1.10;99.90;;;;;;5054717;28;20037;-61
2023/01/22 08:17:08;;;;;;;23.45;14.93;;;1.10;99.90;;;;;;5050179;28;20119;-61
2023/01/22 08:19:34;;;;;;;19.17;13.32;;;1.00;99.90;;;;;;5052064;28;20048;-59
2023/01/22 08:21:59;;;;;;;23.58;14.38;;;1.00;99.90;;;;;;5057094;28;20037;-61
2023/01/22 08:24:25;;;;;;;22.00;13.27;;;0.80;99.90;;;;;;5058095;28;20036;-61
2023/01/22 08:26:51;;;;;;;21.77;14.50;;;1.00;99.90;;;;;;5050851;28;20037;-61
2023/01/22 08:29:16;;;;;;;23.13;15.02;;;1.10;99.90;;;;;;5053649;28;20040;-61
2023/01/22 08:31:42;;;;;;;24.70;15.07;;;1.10;99.90;;;;;;5049679;28;20033;-60
2023/01/22 08:34:07;;;;;;;21.60;14.35;;;1.10;99.90;;;;;;5052030;28;20044;-57
2023/01/22 08:36:33;;;;;;;19.40;12.48;;;1.10;99.90;;;;;;5055552;28;20557;-58
2023/01/22 08:38:58;;;;;;;21.73;13.70;;;0.80;99.90;;;;;;5054898;28;20036;-58
2023/01/22 08:41:24;;;;;;;22.55;15.35;;;0.90;99.90;;;;;;5047685;28;20076;-60
2023/01/22 08:43:52;;;;;;;20.95;14.80;;;1.10;99.90;;;;;;5055780;28;20043;-61
2023/01/22 08:46:17;;;;;;;21.48;13.77;;;1.10;99.90;;;;;;5056324;28;20029;-58
2023/01/22 08:48:43;;;;;;;22.23;14.50;;;1.00;99.90;;;;;;5052719;28;20453;-62
2023/01/22 08:51:09;;;;;;;20.88;14.77;;;0.90;99.90;;;;;;5053933;28;20032;-60
2023/01/22 08:53:35;;;;;;;25.52;15.45;;;0.90;99.90;;;;;;5056645;28;20047;-58
2023/01/22 08:56:01;;;;;;;22.33;15.05;;;0.90;99.90;;;;;;5056784;28;20040;-62
2023/01/22 08:58:26;;;;;;;25.58;15.45;;;1.00;99.90;;;;;;5052168;28;20148;-61
2023/01/22 09:00:53;;;;;;;21.23;15.27;;;1.10;99.90;;;;;;5056235;28;20033;-62
2023/01/22 09:03:22;;;;;;;24.75;15.27;;;1.10;99.90;;;;;;5051794;28;20028;-62
2023/01/22 09:05:49;;;;;;;22.17;15.75;;;1.20;99.90;;;;;;5053255;28;20029;-58
2023/01/22 09:08:15;;;;;;;22.52;15.13;;;1.20;99.90;;;;;;5053340;28;20128;-60
2023/01/22 09:10:42;;;;;;;23.13;16.50;;;1.20;99.90;;;;;;5053028;28;20124;-60
2023/01/22 09:13:08;;;;;;;24.33;16.45;;;1.10;99.90;;;;;;5052034;28;20178;-61
2023/01/22 09:15:33;;;;;;;26.27;17.52;;;1.20;99.90;;;;;;5054227;28;20478;-62
2023/01/22 09:17:59;;;;;;;24.35;16.23;;;1.20;99.90;;;;;;5052084;28;20071;-62
2023/01/22 09:20:25;;;;;;;23.60;16.77;;;1.20;99.90;;;;;;5054977;28;20113;-61
2023/01/22 09:22:50;;;;;;;25.17;16.45;;;1.00;99.90;;;;;;5052707;28;20040;-62
2023/01/22 09:25:16;;;;;;;28.83;16.73;;;1.00;99.90;;;;;;5054077;28;20472;-60
2023/01/22 09:27:42;;;;;;;25.33;17.33;;;1.00;99.90;;;;;;5061325;28;20041;-62
2023/01/22 09:30:08;;;;;;;23.00;15.95;;;1.00;99.90;;;;;;5055433;28;20124;-62
2023/01/22 09:32:34;;;;;;;27.17;16.52;;;0.90;99.90;;;;;;5051540;28;20431;-62
2023/01/22 09:35:00;;;;;;;28.88;17.83;;;1.00;99.90;;;;;;5051520;28;20067;-60
2023/01/22 09:37:26;;;;;;;24.75;17.17;;;1.10;99.90;;;;;;5053415;28;20063;-62
2023/01/22 09:39:52;;;;;;;26.02;16.80;;;1.10;99.90;;;;;;5051623;28;20458;-57
2023/01/22 09:42:39;;;;;;;23.52;16.13;;;1.20;99.90;;;;;;5056136;28;20033;-62
2023/01/22 09:45:11;;;;;;;25.92;15.85;;;1.30;99.90;;;;;;5054378;28;20037;-59
2023/01/22 09:47:46;;;;;;;26.80;17.33;;;1.10;99.90;;;;;;5053589;28;20032;-62
2023/01/22 09:50:24;;;;;;;24.58;15.73;;;1.30;99.90;;;;;;5050609;28;20353;-61
2023/01/22 09:52:52;;;;;;;26.05;16.77;;;1.30;99.90;;;;;;5052164;28;20033;-61
2023/01/22 09:55:21;;;;;;;27.52;16.77;;;1.40;99.90;;;;;;5056815;28;20029;-60
2023/01/22 09:57:53;;;;;;;26.63;17.02;;;1.50;99.90;;;;;;5055853;28;20722;-61
2023/01/22 10:00:38;;;;;;;25.25;17.55;;;1.30;99.90;;;;;;5051168;28;20090;-61
2023/01/22 10:03:10;;;;;;;24.45;16.52;;;1.40;99.90;;;;;;5052302;28;20039;-59
2023/01/22 10:05:41;;;;;;;21.10;14.30;;;1.30;99.90;;;;;;5054993;28;20152;-61
2023/01/22 10:08:30;;;;;;;26.77;17.27;;;1.30;99.90;;;;;;5054098;28;20045;-59
2023/01/22 10:10:59;;;;;;;23.85;14.70;;;;;;;;;;5055340;28;20040;-58
2023/01/22 10:13:32;;;;;;;24.55;17.02;;;1.60;99.90;;;;;;5053440;28;20082;-61
2023/01/22 10:15:57;;;;;;;27.23;17.52;;;1.50;99.90;;;;;;5055926;28;20029;-59
2023/01/22 10:18:38;;;;;;;28.13;18.38;;;1.70;99.90;;;;;;5054160;28;20453;-62
2023/01/22 10:21:14;;;;;;;29.40;17.38;;;1.70;99.90;;;;;;5056764;28;20458;-62
2023/01/22 10:23:40;;;;;;;26.23;18.80;;;1.70;99.90;;;;;;5053944;28;20029;-60
2023/01/22 10:26:24;;;;;;;28.63;18.63;;;1.60;99.90;;;;;;5060341;28;20503;-61
2023/01/22 10:28:54;;;;;;;27.95;17.10;;;1.50;99.90;;;;;;5058477;28;20055;-62
2023/01/22 10:31:28;;;;;;;26.33;17.83;;;1.60;99.90;;;;;;5062719;28;20040;-62
2023/01/22 10:33:56;;;;;;;26.75;17.08;;;1.40;99.90;;;;;;5059245;28;20037;-57
2023/01/22 10:36:21;;;;;;;30.48;17.63;;;1.40;99.90;;;;;;5060146;28;20045;-62
2023/01/22 10:38:47;;;;;;;25.63;18.27;;;1.40;99.90;;;;;;5055814;28;20422;-60
2023/01/22 10:41:16;;;;;;;25.33;18.10;;;1.50;99.90;;;;;;5056570;28;20094;-59
2023/01/22 10:43:42;;;;;;;24.92;17.63;;;1.50;99.90;;;;;;5053412;28;20439;-59
2023/01/22 10:46:21;;;;;;;24.80;17.65;;;1.70;99.90;;;;;;5054116;28;20041;-58
2023/01/22 10:49:01;;;;;;;28.20;18.92;;;1.50;99.90;;;;;;5056638;28;20495;-56
2023/01/22 10:51:38;;;;;;;26.73;18.23;;;1.60;99.90;;;;;;5053355;28;20044;-62
2023/01/22 10:54:22;;;;;;;26.65;18.17;;;1.80;99.90;;;;;;5055174;28;20044;-61
2023/01/22 10:56:49;;;;;;;25.58;18.13;;;1.70;99.90;;;;;;5055508;28;20045;-58
2023/01/22 10:59:27;;;;;;;23.95;16.13;;;1.60;99.90;;;;;;5057047;28;20475;-62
2023/01/22 11:02:08;;;;;;;29.38;17.15;;;1.60;99.90;;;;;;5073036;28;20101;-61
2023/01/22 11:04:34;;;;;;;24.02;16.85;;;1.30;99.90;;;;;;5054092;28;20044;-62
2023/01/22 11:07:25;;;;;;;22.90;16.92;;;1.50;99.90;;;;;;5056397;28;20046;-59
2023/01/22 11:10:17;;;;;;;26.20;17.52;;;1.50;99.90;;;;;;5052244;28;20391;-59
2023/01/22 11:12:48;;;;;;;26.60;17.33;;;1.60;99.90;;;;;;5054942;28;20076;-61
2023/01/22 11:15:37;;;;;;;26.77;18.60;;;1.60;99.90;;;;;;5057377;28;20043;-62
2023/01/22 11:18:04;;;;;;;28.30;18.52;;;1.60;99.90;;;;;;5055323;28;20037;-62
2023/01/22 11:20:57;;;;;;;26.20;18.33;;;1.70;99.90;;;;;;5060968;28;20076;-61
2023/01/22 11:23:41;;;;;;;26.98;18.98;;;1.90;99.90;;;;;;5060814;28;20047;-58
2023/01/22 11:26:31;;;;;;;27.50;18.05;;;1.90;99.90;;;;;;5061053;28;20033;-61
2023/01/22 11:29:24;;;;;;;26.35;16.88;;;1.90;99.90;;;;;;5061521;28;20071;-62
2023/01/22 11:32:18;;;;;;;27.40;17.27;;;1.90;99.90;;;;;;5058908;28;20029;-62
2023/01/22 11:34:57;;;;;;;29.05;18.58;;;1.80;99.90;;;;;;5061810;28;20037;-61
2023/01/22 11:37:57;;;;;;;29.52;19.65;;;1.80;99.90;;;;;;5062497;28;20045;-62
2023/01/22 11:40:30;;;;;;;28.08;18.10;;;2.00;99.90;;;;;;5061088;28;20028;-61
2023/01/22 11:43:16;;;;;;;27.48;17.95;;;2.00;99.90;;;;;;5060337;28;20041;-61
2023/01/22 11:46:20;;;;;;;26.65;17.55;;;2.00;99.90;;;;;;5059859;28;20070;-61
2023/01/22 11:49:23;;;;;;;25.75;17.60;;;2.00;99.90;;;;;;5057035;28;20597;-58
2023/01/22 11:52:22;;;;;;;29.08;16.17;;;1.90;99.90;;;;;;5053208;28;20032;-60
2023/01/22 11:55:21;;;;;;;27.52;18.95;;;2.00;99.90;;;;;;5060145;28;20060;-58
2023/01/22 11:57:58;;;;;;;27.75;17.92;;;2.20;99.90;;;;;;5056100;28;20041;-61
2023/01/22 12:00:49;;;;;;;29.92;20.00;;;1.90;99.90;;;;;;5054150;28;20130;-62
2023/01/22 12:03:43;;;;;;;30.80;19.42;;;2.00;99.90;;;;;;5054443;28;20043;-61
2023/01/22 12:06:30;;;;;;;28.08;18.55;;;1.90;99.90;;;;;;5056863;28;20048;-62
2023/01/22 12:08:55;;;;;;;28.08;19.33;;;1.80;99.90;;;;;;5057359;28;20105;-60
2023/01/22 12:11:30;;;;;;;26.63;17.63;;;1.80;99.90;;;;;;5052072;28;20043;-61
2023/01/22 12:14:15;;;;;;;23.40;15.32;;;1.70;99.90;;;;;;5055499;28;20058;-61
2023/01/22 12:17:09;;;;;;;26.58;18.15;;;1.60;99.90;;;;;;5055184;28;20508;-61
2023/01/22 12:19:53;;;;;;;27.45;18.35;;;1.70;99.90;;;;;;5054441;28;20033;-62
2023/01/22 12:22:58;;;;;;;27.02;18.35;;;1.70;99.90;;;;;;5055273;28;20101;-61
2023/01/22 12:25:47;;;;;;;28.63;19.17;;;1.70;99.90;;;;;;5019307;28;20771;-63
2023/01/22 12:28:39;;;;;;;29.98;19.10;;;1.80;99.90;;;;;;5051543;28;20041;-60
2023/01/22 12:31:18;;;;;;;31.58;18.58;;;1.70;99.90;;;;;;5051514;28;20036;-62
2023/01/22 12:33:44;;;;;;;29.52;18.42;;;1.70;99.90;;;;;;5054850;28;21505;-63
2023/01/22 12:36:18;;;;;;;25.83;17.58;;;1.60;99.90;;;;;;5061006;28;20651;-62
2023/01/22 12:38:47;;;;;;;27.13;16.98;;;1.60;99.90;;;;;;5056857;28;20067;-61
2023/01/22 12:41:40;;;;;;;28.27;18.30;;;1.50;99.90;;;;;;5052211;28;20033;-63
2023/01/22 12:44:17;;;;;;;27.10;18.13;;;1.50;99.90;;;;;;5052553;28;20029;-62
2023/01/22 12:47:07;;;;;;;28.13;19.13;;;1.60;99.90;;;;;;5053918;28;20484;-62
2023/01/22 12:49:47;;;;;;;28.67;19.63;;;1.80;99.90;;;;;;5053931;28;20343;-61
2023/01/22 12:52:31;;;;;;;26.80;17.83;;;1.80;99.90;;;;;;5054442;28;20029;-63
2023/01/22 12:54:58;;;;;;;30.33;19.05;;;1.80;99.90;;;;;;5052921;28;20029;-61
2023/01/22 12:57:34;;;;;;;29.27;19.85;;;2.00;99.90;;;;;;5050668;28;20484;-59
2023/01/22 13:00:10;;;;;;;30.75;19.90;;;2.20;99.90;;;;;;5055788;28;20063;-62